Wednesday, October 01, 2014
06:04 UTC
  |  Log In   |  Register Free
Airport Search:

Indiana County/Jimmy Stewart Fld/ Airport
(KIDI)

Indiana County/Jimmy Stewart Fld/ Airport Diagram
No Airport Diagram Available

FAA data valid effective September 18, 2014 - November 13, 2014 (unless otherwise noted).

 
 
 
 
 
 
 
 
 
 
 
 
 
 

Current Aviation Weather for Indiana County/Jimmy Stewart Fld/ Airport (KIDI)

The most recent METAR observation for KIDI was updated at: 0516
METAR Summary (Translated METAR)
KIDI
010455Z AUTO 11003KT 10SM FEW033 SCT050 BKN060 14/13 A3001 RMK A01
KJST
010454Z AUTO 00000KT 10SM SCT080 SCT095 13/10 A2998 RMK AO2 RAB0358E13 SLP143 P0000 T01280100 402390128
(22.7 nm SE from KIDI)
KLBE
010455Z AUTO 00000KT 10SM CLR 13/13 A2998 RMK A02 P000
(25.5 nm SW from KIDI)
TAF Summary (Translated TAF)
KJST
(22.7 nm SE from KIDI)
010322Z 0103/0124 15004KT P6SM SCT050 SCT120 FM010600 15002KT 4SM BR OVC012 FM010900 13002KT 1/2SM FG OVC002 FM011330 13002KT 3SM BR OVC009 FM011700 13006KT P6SM BKN050
KLBE
(25.5 nm SW from KIDI)
302006Z 3020/0118 29008KT P6SM OVC035 FM010200 36005KT P6SM OVC020 FM011500 12005KT P6SM BKN035
  Airport Weather Conditions for KIDI

 Current Weather at IDI
57° F
Mostly Cloudy
East winds at 3.5 mph
IDI NOAA Radar

Pressure: 30.01 in
Humidity: 94%
Wind: East at 3.5 MPH (3 KT)
Dew Point: 55.4°F
Visibility: 10.00 mi


Airport Weather Forecast for KIDI

Translated METAR and TAF for KIDI
Translated METAR for KIDI (0559 UTC 01 October 2014)
found at http://aviationweather.gov/adds/metars/
 
METAR text: KIDI 010555Z AUTO 00000KT 9SM SCT043 BKN055 13/12 A3001 RMK A01
Conditions at: KIDI (INDIANA/STEWART , PA, US) observed 0555 UTC 01 October 2014
Temperature: 13.0°C (55°F)
Dewpoint: 12.0°C (54°F) [RH = 94%]
Pressure (altimeter): 30.01 inches Hg (1016.3 mb)
Winds: calm
Visibility: 9 miles (14 km)
Ceiling: 5500 feet AGL
Clouds: scattered clouds at 4300 feet AGL
broken clouds at 5500 feet AGL
Weather: automated observation with no human augmentation;
there may or may not be significant weather present at this time
Translated TAF for KIDI

There is no translated TAF available for this airport

Find All Airport Services Find A Hotel Find A Rental Car Find A Golf Course Find A Restaurant $100 Hamburger



FBO's on the Field
FBO Company Facility Photos Services Transportation Aviation Fuel Prices: Prices include tax
Catering Weather Repair Courtesy Rental Type 100LL JetA JetA+ MOGAS 8087
 
Indiana County Jimmy Stewart Airport

Currently rated 5 by 1 person
FS:Phillips66
Last Updated: Sep-17
Login to update fuel prices
SS:
Contact Indiana County Jimmy Stewart AirportMore FBO Information
 
Add another FBO Facility Photos Catering Weather Repair Courtesy Rental Type 100LL JetA JetA+ MOGAS 8087
Services Transportation Aviation Fuel Prices: Prices include tax


model-print
model-print
model-print
model-print